Cleveland, OH

5:49 PM EST on December 06, 2016 (GMT -0500)
LeanDog | | Change Station

Elev 574 ft 41.51 °N, 81.69 °W | Updated 1 second ago

Overcast
Overcast
40.7 °F
Feels Like 41 °F
N
0.0
Wind Variable Wind from WSW

Today
High -- | Low -- °F
--% Chance of Precip.
Yesterday
High -- | Low -- °F
Precip. -- in
Pressure 29.70 in
Visibility 5.0 miles
Clouds Mostly Cloudy 1000 ft
Mostly Cloudy 2300 ft
Overcast 2900 ft
Windchill 41 °F
Dew Point 38 °F
Humidity 92%
Rainfall 0.60 in
Snow Depth Not available.
7:39 AM 4:56 PM
Waxing Crescent, 46% visible
SPECI KBKL 062223Z 19003KT 5SM BR BKN010 BKN023 OVC029 04/03 A2970 RMK AO2 RAE09 P0001 T00440028
Pressure 29.70 in
Visibility 5.0 miles
Clouds Mostly Cloudy 1000 ft
Mostly Cloudy 2300 ft
Overcast 2900 ft
Windchill 41 °F
Dew Point 38 °F
Humidity 92%
Rainfall 0.60 in
Snow Depth Not available.
7:39 AM 4:56 PM
Waxing Crescent, 46% visible
SPECI KBKL 062223Z 19003KT 5SM BR BKN010 BKN023 OVC029 04/03 A2970 RMK AO2 RAE09 P0001 T00440028

10-Day Weather Forecast

Almanac

Astronomy

Dec. 06, 2016 Rise Set
Actual Time
Civil Twilight
Nautical Twilight
Astronomical Twilight
Moon
Length of Visible Light
Length of Day
Tomorrow will be .
, % of the Moon is Illuminated

Today's Extremes

State Highs State Lows

Community

WunderPhotos

Upload Photos

1,956,042 photos uploaded!

WunderBlog® & News

Nearby

Air Quality

  Air Quality AQ Index Pollutant
Not available.

Snow Depth

Station Depth Elevation

Earthquake Activity

City Distance Mag. Time & Date
Minimum magnitude displayed is 2.5.

Coastal Water Temperatures

Place Temperature

Stations

Nearby Weather Stations

Station Location Temp. Windchill Dew Point Humidity Wind Precip. Elev Updated Type
                   

Watches & Warnings

There are currently no watches in effect.